メインページ
METAR-TAF:

METAR-TAF

空港 :

Saint-Hubert, ケベック州, カナダ

緯度: 45-31N, 経度: 073-25W, 海抜: 27m

現時点の気象観測

当レポートは57分前の11:00(UTC)に作成
西の風 10kt
気温 -12°C
湿度 66%
気圧 1014 hPa
視程: 14.5km
晴天

METAR: CYHU 231100Z AUTO 28010KT 9SM CLR M12/M17 A2994 RMK SLP145

時間: 06:57 (11:57 UTC)

予報

当レポートは19分前の11:38(UTC)に作成
予報は23日の 12時(UTC)から 24日の 12時(UTC)まで有効
西の風 12kt
視程: 10km
高度5000ftの雲はほとんどない
高度9000ftの雲は散在している
23日の 12時(UTC)から 23日の 15時(UTC)まで一時的に
高度5000ftの千切れ雲あり
高度9000ftの千切れ雲あり
23日の 1500時(UTC)から
西の風 15kt、最大25ktの突風を伴う
視程: 10km
高度2500ftの雲は散在している
高度4000ftの千切れ雲あり
24日の 0600時(UTC)から
西の風 13kt、最大23ktの突風を伴う
視程: 10km
高度2500ftの雲はほとんどない

TAF: CYHU 231138Z 2312/2412 28012KT P6SM FEW050 SCT090 TEMPO 2312/2315 BKN050 BKN090 FM231500 28015G25KT P6SM SCT025 BKN040 FM240600 27013G23KT P6SM FEW025 RMK FCST BASED ON AUTO OBS. NXT FCST BY 231800Z

4,000以上の空港の気象観測と天気予報(METAR報とTAF報)

利用可能な観測所は地図上に黄色い丸と赤い丸で示す。

丸の上にカーソルを重ねると観測所名を参照できる。

次にクリックすると気象観測と天気予報を参照できる。

マップの切り替え:黒色「×」印の緑ボタンをクリックして拡大、「-」印の緑ボタンをクリックして縮小、緑色の三角印をクリックして隣りの地図に切り替え


METAR-TAF: